Terminal Aerodrome Forecast
Issued by NWS Wilmington, NC

Home | Current Version | Previous Version | Text Only | Print | Product List | Glossary On
Versions: 1 2 3 4 5 6 7 8 9 10 11 12 13
000
FTUS42 KILM 180524
TAFLBT
TAF
KLBT 180524Z 1806/1906 00000KT P6SM SKC
     FM181500 20010G20KT P6SM FEW030 SCT250
     FM190400 22013G22KT P6SM VCSH SCT030 SCT250=

USA.gov is the U.S. government's official web portal to all federal, state and local government web resources and services.